Time;durP1;ratioP1;P1;durP2;ratioP2;P2;SDS_P1;SDS_P2;PMS_P1;PMS_P2;Temp;Humidity;BMP_temperature;BMP_pressure;BME280_temperature;BME280_humidity;BME280_pressure;Samples;Min_cycle;Max_cycle;Signal;HPM_P1;HPM_P2
2022/10/16 00:01:14;;;;;;;4.07;1.30;;;14.80;99.90;;;;;;5012729;28;20211;-57
2022/10/16 00:03:41;;;;;;;3.10;1.33;;;14.80;99.90;;;;;;5012652;28;20192;-56
2022/10/16 00:06:08;;;;;;;3.47;1.50;;;14.80;99.90;;;;;;5012132;28;20549;-56
2022/10/16 00:08:34;;;;;;;5.60;1.63;;;14.80;99.90;;;;;;5007853;28;20184;-54
2022/10/16 00:11:02;;;;;;;4.22;1.33;;;14.80;99.90;;;;;;5005739;28;20204;-56
2022/10/16 00:13:27;;;;;;;9.45;1.50;;;14.80;99.90;;;;;;5011189;28;20204;-57
2022/10/16 00:15:56;;;;;;;3.40;1.50;;;14.70;99.90;;;;;;5013197;28;20181;-57
2022/10/16 00:18:22;;;;;;;6.28;1.60;;;14.70;99.90;;;;;;5009471;28;20646;-56
2022/10/16 00:20:48;;;;;;;6.00;1.35;;;14.70;99.90;;;;;;5007074;28;20250;-57
2022/10/16 00:23:14;;;;;;;3.58;1.60;;;14.70;99.90;;;;;;5012858;28;20698;-57
2022/10/16 00:25:39;;;;;;;6.90;1.70;;;14.70;99.90;;;;;;5013069;28;20176;-56
2022/10/16 00:28:05;;;;;;;6.07;1.60;;;14.70;99.90;;;;;;4994735;28;20193;-57
2022/10/16 00:30:31;;;;;;;6.75;1.83;;;14.70;99.90;;;;;;5012988;28;20315;-57
2022/10/16 00:32:56;;;;;;;6.32;1.80;;;14.70;99.90;;;;;;5012097;28;20297;-56
2022/10/16 00:35:22;;;;;;;6.47;1.88;;;14.60;99.90;;;;;;5012271;28;20316;-57
2022/10/16 00:37:48;;;;;;;5.47;1.70;;;14.70;99.90;;;;;;5012834;28;20177;-57
2022/10/16 00:40:14;;;;;;;2.50;1.27;;;14.70;99.90;;;;;;5005567;28;20196;-56
2022/10/16 00:42:40;;;;;;;3.63;1.60;;;14.70;99.90;;;;;;5008641;28;20188;-52
2022/10/16 00:45:06;;;;;;;6.35;1.58;;;14.70;99.90;;;;;;5012524;28;20185;-55
2022/10/16 00:47:40;;;;;;;5.50;1.83;;;14.60;99.90;;;;;;5011931;28;20648;-55
2022/10/16 00:50:26;;;;;;;2.95;1.30;;;14.60;99.90;;;;;;5011754;28;20205;-54
2022/10/16 00:52:52;;;;;;;5.38;1.50;;;14.60;99.90;;;;;;5013213;28;20331;-57
2022/10/16 00:55:19;;;;;;;4.50;1.60;;;14.60;99.90;;;;;;5016473;28;20195;-55
2022/10/16 00:57:45;;;;;;;3.65;1.40;;;14.60;99.90;;;;;;5032600;28;20289;-56
2022/10/16 01:00:15;;;;;;;4.05;1.52;;;14.60;99.90;;;;;;5024251;28;20180;-58
2022/10/16 01:02:41;;;;;;;3.55;1.42;;;14.60;99.90;;;;;;5010515;28;20191;-56
2022/10/16 01:05:07;;;;;;;3.78;1.45;;;14.60;99.90;;;;;;5013784;28;20655;-52
2022/10/16 01:07:47;;;;;;;6.82;1.33;;;14.70;99.90;;;;;;5014843;28;20192;-51
2022/10/16 01:10:35;;;;;;;5.57;1.40;;;14.70;99.90;;;;;;5014065;28;20208;-57
2022/10/16 01:13:06;;;;;;;3.40;1.23;;;14.70;99.90;;;;;;5013060;28;20196;-55
2022/10/16 01:16:00;;;;;;;3.97;1.42;;;14.70;99.90;;;;;;5016379;28;20196;-52
2022/10/16 01:18:44;;;;;;;2.83;1.38;;;14.80;99.90;;;;;;5016625;28;20239;-53
2022/10/16 01:21:27;;;;;;;2.72;1.20;;;14.70;99.90;;;;;;5012758;28;20181;-54
2022/10/16 01:24:02;;;;;;;3.03;1.27;;;14.80;99.90;;;;;;5013777;28;20555;-53
2022/10/16 01:26:54;;;;;;;2.80;1.20;;;14.80;99.90;;;;;;5015403;28;20180;-55
2022/10/16 01:29:34;;;;;;;2.80;1.33;;;14.80;99.90;;;;;;5016156;28;20187;-56
2022/10/16 01:32:07;;;;;;;5.85;1.42;;;14.70;99.90;;;;;;5014506;28;20180;-56
2022/10/16 01:34:37;;;;;;;3.13;1.30;;;14.70;99.90;;;;;;5014448;28;20183;-56
2022/10/16 01:37:09;;;;;;;8.02;1.70;;;14.70;99.90;;;;;;5015252;28;20268;-59
2022/10/16 01:39:39;;;;;;;3.00;1.30;;;14.80;99.90;;;;;;5015757;28;20259;-55
2022/10/16 01:42:12;;;;;;;6.25;1.77;;;14.70;99.90;;;;;;5012213;28;20185;-57
2022/10/16 01:44:39;;;;;;;4.65;1.45;;;14.80;99.90;;;;;;5012803;28;20185;-52
2022/10/16 01:47:07;;;;;;;3.40;1.15;;;14.70;99.90;;;;;;5014401;28;20228;-53
2022/10/16 01:49:36;;;;;;;2.90;1.15;;;14.70;99.90;;;;;;5015594;28;20180;-55
2022/10/16 01:52:07;;;;;;;2.22;0.90;;;14.80;99.90;;;;;;5014542;28;20176;-50
2022/10/16 01:54:36;;;;;;;2.47;1.20;;;14.70;99.90;;;;;;5024404;28;20627;-56
2022/10/16 01:57:05;;;;;;;4.93;1.60;;;14.70;99.90;;;;;;5015455;28;20176;-52
2022/10/16 01:59:36;;;;;;;2.95;1.30;;;14.70;99.90;;;;;;5014250;28;20184;-53
2022/10/16 02:02:07;;;;;;;9.60;1.55;;;14.70;99.90;;;;;;5015192;28;20562;-55
2022/10/16 02:04:57;;;;;;;3.70;1.10;;;14.70;99.90;;;;;;5009490;28;20173;-56
2022/10/16 02:07:23;;;;;;;2.92;1.30;;;14.70;99.90;;;;;;5012273;28;20189;-53
2022/10/16 02:09:50;;;;;;;2.22;1.00;;;14.70;99.90;;;;;;5014716;28;20601;-53
2022/10/16 02:12:23;;;;;;;4.18;1.20;;;14.60;99.90;;;;;;5013888;28;20197;-54
2022/10/16 02:14:48;;;;;;;7.65;1.40;;;14.60;99.90;;;;;;5009976;28;20743;-55
2022/10/16 02:17:17;;;;;;;9.55;1.67;;;14.60;99.90;;;;;;5012382;28;20208;-53
2022/10/16 02:19:45;;;;;;;6.75;1.40;;;14.60;99.90;;;;;;5014628;28;20187;-56
2022/10/16 02:22:24;;;;;;;3.58;1.30;;;14.50;99.90;;;;;;4997073;28;20650;-56
2022/10/16 02:25:01;;;;;;;4.38;1.60;;;14.50;99.90;;;;;;5006452;28;20204;-57
2022/10/16 02:27:43;;;;;;;4.43;1.40;;;14.50;99.90;;;;;;5014835;28;20188;-56
2022/10/16 02:30:38;;;;;;;5.85;1.58;;;14.40;99.90;;;;;;5014768;28;20699;-56
2022/10/16 02:33:07;;;;;;;8.60;2.30;;;14.40;99.90;;;;;;5009029;28;20204;-56
2022/10/16 02:35:33;;;;;;;4.70;1.90;;;14.40;99.90;;;;;;5013232;28;20191;-56
2022/10/16 02:38:00;;;;;;;5.00;2.17;;;14.30;99.90;;;;;;5029882;28;20196;-53
2022/10/16 02:40:26;;;;;;;2.65;1.58;;;14.30;99.90;;;;;;5013360;28;20238;-56
2022/10/16 02:42:53;;;;;;;3.08;1.60;;;14.30;99.90;;;;;;5014575;28;20177;-56
2022/10/16 02:45:20;;;;;;;3.17;1.60;;;14.30;99.90;;;;;;5012013;28;20179;-65
2022/10/16 02:47:46;;;;;;;3.35;1.38;;;14.20;99.90;;;;;;5010473;28;20319;-54
2022/10/16 02:50:11;;;;;;;5.93;1.67;;;14.20;99.90;;;;;;5014635;28;20745;-56
2022/10/16 02:52:37;;;;;;;4.07;1.50;;;14.20;99.90;;;;;;5012635;28;20213;-56
2022/10/16 02:55:03;;;;;;;8.55;1.75;;;14.10;99.90;;;;;;5013620;28;20219;-59
2022/10/16 02:57:29;;;;;;;5.88;1.65;;;14.10;99.90;;;;;;5013560;28;20184;-57
2022/10/16 02:59:55;;;;;;;8.02;1.60;;;14.10;99.90;;;;;;5013871;28;20185;-54
2022/10/16 03:02:20;;;;;;;4.95;1.40;;;14.10;99.90;;;;;;5013993;28;20536;-55
2022/10/16 03:04:46;;;;;;;3.80;1.63;;;14.10;99.90;;;;;;5012859;28;20227;-55
2022/10/16 03:07:12;;;;;;;6.85;1.50;;;14.10;99.90;;;;;;5009191;28;20181;-58
2022/10/16 03:09:38;;;;;;;3.88;1.60;;;14.10;99.90;;;;;;5026136;28;20927;-56
2022/10/16 03:12:04;;;;;;;2.67;1.55;;;14.10;99.90;;;;;;5012788;28;20195;-56
2022/10/16 03:14:29;;;;;;;2.75;1.58;;;14.20;99.90;;;;;;5013811;28;20549;-59
2022/10/16 03:16:55;;;;;;;6.20;2.03;;;14.10;99.90;;;;;;5011747;28;20622;-60
2022/10/16 03:19:21;;;;;;;5.55;2.45;;;14.20;99.90;;;;;;5008097;28;20188;-53
2022/10/16 03:21:46;;;;;;;3.17;1.70;;;14.20;99.90;;;;;;5009535;28;20250;-54
2022/10/16 03:24:12;;;;;;;2.08;1.55;;;14.10;99.90;;;;;;5013427;28;20191;-56
2022/10/16 03:26:38;;;;;;;6.20;1.88;;;14.10;99.90;;;;;;5013686;28;20271;-54
2022/10/16 03:29:04;;;;;;;4.80;1.88;;;14.10;99.90;;;;;;5008451;28;20914;-56
2022/10/16 03:31:30;;;;;;;4.57;1.70;;;14.10;99.90;;;;;;5013487;28;20255;-55
2022/10/16 03:33:56;;;;;;;6.97;1.98;;;14.10;99.90;;;;;;5014037;28;20223;-57
2022/10/16 03:36:21;;;;;;;6.78;1.80;;;14.10;99.90;;;;;;5012953;28;20188;-56
2022/10/16 03:38:47;;;;;;;7.97;1.77;;;14.10;99.90;;;;;;5009586;28;20603;-56
2022/10/16 03:41:13;;;;;;;4.38;1.70;;;14.10;99.90;;;;;;5012012;28;20287;-55
2022/10/16 03:43:39;;;;;;;4.35;1.90;;;14.10;99.90;;;;;;5008749;28;20181;-65
2022/10/16 03:46:05;;;;;;;5.93;2.08;;;14.10;99.90;;;;;;5011605;28;20681;-56
2022/10/16 03:48:31;;;;;;;4.03;2.00;;;14.10;99.90;;;;;;5011916;28;20193;-57
2022/10/16 03:50:58;;;;;;;5.57;2.00;;;14.00;99.90;;;;;;5012049;28;20617;-56
2022/10/16 03:53:24;;;;;;;7.13;2.00;;;14.10;99.90;;;;;;5011107;28;20177;-53
2022/10/16 03:55:50;;;;;;;7.28;1.92;;;14.00;99.90;;;;;;5012332;28;20187;-54
2022/10/16 03:58:16;;;;;;;7.13;1.80;;;14.10;99.90;;;;;;5020940;28;20180;-57
2022/10/16 04:00:43;;;;;;;6.00;2.00;;;14.10;99.90;;;;;;5012885;28;20697;-56
2022/10/16 04:03:09;;;;;;;6.40;2.00;;;14.10;99.90;;;;;;5012372;28;20181;-57
2022/10/16 04:05:35;;;;;;;3.67;1.77;;;14.10;99.90;;;;;;5006442;28;20181;-54
2022/10/16 04:08:00;;;;;;;5.55;2.03;;;14.20;99.90;;;;;;5011637;28;20262;-56
2022/10/16 04:10:26;;;;;;;4.45;1.70;;;14.20;99.90;;;;;;5012874;28;20209;-56
2022/10/16 04:12:54;;;;;;;4.40;1.98;;;14.20;99.90;;;;;;5012872;28;20632;-54
2022/10/16 04:15:20;;;;;;;5.35;1.63;;;14.20;99.90;;;;;;5010957;28;20180;-54
2022/10/16 04:17:46;;;;;;;4.38;1.90;;;14.20;99.90;;;;;;5009437;28;20702;-55
2022/10/16 04:20:12;;;;;;;8.73;1.80;;;14.20;99.90;;;;;;5013231;28;20295;-57
2022/10/16 04:22:37;;;;;;;10.32;2.38;;;14.20;99.90;;;;;;5015049;28;20259;-57
2022/10/16 04:25:03;;;;;;;8.40;1.98;;;14.20;99.90;;;;;;5017748;28;20181;-54
2022/10/16 04:27:31;;;;;;;5.30;1.70;;;14.20;99.90;;;;;;5013412;28;20319;-54
2022/10/16 04:29:57;;;;;;;5.65;1.77;;;14.20;99.90;;;;;;5012224;28;20295;-55
2022/10/16 04:32:23;;;;;;;8.85;2.10;;;14.20;99.90;;;;;;5010867;28;20192;-64
2022/10/16 04:34:49;;;;;;;10.32;1.98;;;14.20;99.90;;;;;;5010380;28;20187;-58
2022/10/16 04:37:15;;;;;;;7.07;1.48;;;14.20;99.90;;;;;;5010878;28;20604;-57
2022/10/16 04:39:40;;;;;;;9.73;1.70;;;14.10;99.90;;;;;;5016671;28;20214;-59
2022/10/16 04:42:06;;;;;;;10.95;1.80;;;14.10;99.90;;;;;;5014699;28;20207;-56
2022/10/16 04:44:32;;;;;;;10.68;2.05;;;14.10;99.90;;;;;;5017012;28;20276;-56
2022/10/16 04:46:57;;;;;;;8.82;1.80;;;14.20;99.90;;;;;;5015188;28;20319;-57
2022/10/16 04:49:23;;;;;;;4.00;1.50;;;14.10;99.90;;;;;;5013505;28;20184;-55
2022/10/16 04:51:49;;;;;;;8.88;1.83;;;14.10;99.90;;;;;;5016279;28;20216;-57
2022/10/16 04:54:15;;;;;;;6.55;1.50;;;14.20;99.90;;;;;;5011696;28;20272;-58
2022/10/16 04:56:46;;;;;;;8.70;1.88;;;14.20;99.90;;;;;;5014218;28;20177;-54
2022/10/16 04:59:14;;;;;;;11.10;1.60;;;14.20;99.90;;;;;;5012382;28;20193;-59
2022/10/16 05:01:39;;;;;;;6.32;1.52;;;14.20;99.90;;;;;;5013852;28;20605;-53
2022/10/16 05:04:05;;;;;;;7.40;1.52;;;14.20;99.90;;;;;;5013381;28;20189;-57
2022/10/16 05:06:31;;;;;;;7.00;1.65;;;14.20;99.90;;;;;;5008558;28;20188;-54
2022/10/16 05:08:57;;;;;;;11.80;1.70;;;14.20;99.90;;;;;;5013598;28;20275;-58
2022/10/16 05:11:22;;;;;;;8.57;1.80;;;14.20;99.90;;;;;;5016090;28;20207;-58
2022/10/16 05:13:48;;;;;;;8.60;2.00;;;14.10;99.90;;;;;;5015182;28;20275;-56
2022/10/16 05:16:14;;;;;;;7.95;1.98;;;14.10;99.90;;;;;;4992853;28;20606;-57
2022/10/16 05:18:40;;;;;;;7.63;1.70;;;14.10;99.90;;;;;;5015877;28;20176;-57
2022/10/16 05:21:06;;;;;;;5.18;1.52;;;14.00;99.90;;;;;;5013893;28;20191;-56
2022/10/16 05:23:33;;;;;;;9.90;2.47;;;14.00;99.90;;;;;;5015770;28;20219;-56
2022/10/16 05:25:59;;;;;;;6.82;1.85;;;13.90;99.90;;;;;;5010614;28;20204;-53
2022/10/16 05:28:26;;;;;;;6.13;1.60;;;13.90;99.90;;;;;;5014608;28;20698;-56
2022/10/16 05:30:52;;;;;;;7.72;1.63;;;13.90;99.90;;;;;;5016077;28;20212;-56
2022/10/16 05:33:20;;;;;;;7.00;1.70;;;13.90;99.90;;;;;;5012343;28;20193;-55
2022/10/16 05:35:46;;;;;;;5.40;1.60;;;13.80;99.90;;;;;;5008090;28;20235;-55
2022/10/16 05:38:12;;;;;;;6.72;2.05;;;13.80;99.90;;;;;;5013619;28;20239;-54
2022/10/16 05:40:38;;;;;;;8.65;2.17;;;13.80;99.90;;;;;;5014467;28;20188;-56
2022/10/16 05:43:04;;;;;;;8.20;2.20;;;13.80;99.90;;;;;;5013288;28;20193;-54
2022/10/16 05:45:29;;;;;;;10.27;2.33;;;13.70;99.90;;;;;;5010903;28;20271;-55
2022/10/16 05:47:55;;;;;;;7.00;2.38;;;13.70;99.90;;;;;;5015598;28;20236;-54
2022/10/16 05:50:21;;;;;;;8.55;2.42;;;13.70;99.90;;;;;;5015655;28;20378;-50
2022/10/16 05:52:47;;;;;;;8.00;2.33;;;13.70;99.90;;;;;;5014960;28;20348;-58
2022/10/16 05:55:13;;;;;;;13.18;2.60;;;13.70;99.90;;;;;;5008368;28;20745;-62
2022/10/16 05:57:38;;;;;;;8.38;2.60;;;13.70;99.90;;;;;;5010118;28;20579;-54
2022/10/16 06:00:05;;;;;;;9.98;2.50;;;13.70;99.90;;;;;;5013774;28;20657;-51
2022/10/16 06:02:38;;;;;;;6.95;2.20;;;13.70;99.90;;;;;;5014318;28;20188;-55
2022/10/16 06:05:04;;;;;;;8.63;2.50;;;13.70;99.90;;;;;;5025049;28;20194;-55
2022/10/16 06:07:34;;;;;;;6.95;2.50;;;13.70;99.90;;;;;;5011563;28;20196;-60
2022/10/16 06:10:00;;;;;;;8.73;2.53;;;13.70;99.90;;;;;;5013302;28;20276;-57
2022/10/16 06:12:26;;;;;;;9.25;2.65;;;13.60;99.90;;;;;;5000865;28;20244;-56
2022/10/16 06:14:52;;;;;;;9.82;2.38;;;13.70;99.90;;;;;;5009807;28;20193;-53
2022/10/16 06:17:18;;;;;;;8.18;2.42;;;13.60;99.90;;;;;;5013611;28;20184;-55
2022/10/16 06:19:44;;;;;;;9.90;2.40;;;13.60;99.90;;;;;;5012295;28;20662;-68
2022/10/16 06:22:09;;;;;;;6.93;2.60;;;13.60;99.90;;;;;;5017118;28;20185;-61
2022/10/16 06:24:35;;;;;;;5.70;2.30;;;13.60;99.90;;;;;;5007489;28;20189;-55
2022/10/16 06:27:02;;;;;;;7.50;2.50;;;13.60;99.90;;;;;;5011602;28;20208;-57
2022/10/16 06:29:28;;;;;;;8.32;2.40;;;13.60;99.90;;;;;;5014703;28;20263;-57
2022/10/16 06:31:54;;;;;;;5.88;2.10;;;13.70;99.90;;;;;;5009888;28;21225;-66
2022/10/16 06:34:19;;;;;;;5.60;2.20;;;13.70;99.90;;;;;;5003262;28;20239;-57
2022/10/16 06:36:45;;;;;;;5.72;2.42;;;13.70;99.90;;;;;;5012589;28;20219;-57
2022/10/16 06:39:11;;;;;;;8.95;2.78;;;13.70;99.90;;;;;;5029829;28;20729;-56
2022/10/16 06:41:37;;;;;;;7.22;2.58;;;13.70;99.90;;;;;;5012517;28;20188;-57
2022/10/16 06:44:14;;;;;;;8.02;3.03;;;13.70;99.90;;;;;;5003096;28;20287;-64
2022/10/16 06:46:40;;;;;;;10.38;2.80;;;13.70;99.90;;;;;;5008367;28;20228;-70
2022/10/16 06:49:05;;;;;;;16.98;3.28;;;13.70;99.90;;;;;;5015154;28;20193;-66
2022/10/16 06:51:34;;;;;;;9.57;2.85;;;13.60;99.90;;;;;;4996954;28;20212;-57
2022/10/16 06:53:59;;;;;;;14.73;3.08;;;13.60;99.90;;;;;;5009918;28;20201;-55
2022/10/16 06:56:27;;;;;;;11.32;2.60;;;13.60;99.90;;;;;;5027421;28;20191;-53
2022/10/16 06:58:53;;;;;;;8.77;2.60;;;13.60;99.90;;;;;;5013394;28;20267;-51
2022/10/16 07:01:22;;;;;;;9.57;3.00;;;13.60;99.90;;;;;;5010532;28;20191;-50
2022/10/16 07:03:48;;;;;;;12.43;3.00;;;13.60;99.90;;;;;;5000956;28;20209;-64
2022/10/16 07:06:17;;;;;;;10.63;2.60;;;13.60;99.90;;;;;;5005524;28;20208;-56
2022/10/16 07:08:45;;;;;;;11.85;2.72;;;13.60;99.90;;;;;;5012347;28;20183;-56
2022/10/16 07:11:14;;;;;;;7.15;2.47;;;13.60;99.90;;;;;;5012245;28;20581;-56
2022/10/16 07:13:41;;;;;;;8.35;2.50;;;13.60;99.90;;;;;;5006636;28;20177;-60
2022/10/16 07:16:11;;;;;;;13.50;2.75;;;13.60;99.90;;;;;;5006874;28;20188;-53
2022/10/16 07:18:38;;;;;;;9.50;2.50;;;13.70;99.90;;;;;;5012656;28;20180;-53
2022/10/16 07:21:19;;;;;;;14.93;2.50;;;13.70;99.90;;;;;;5011994;28;20196;-56
2022/10/16 07:23:44;;;;;;;8.23;2.33;;;13.70;99.90;;;;;;4993654;28;20176;-57
2022/10/16 07:26:11;;;;;;;9.05;2.22;;;13.80;99.90;;;;;;5011406;28;20180;-56
2022/10/16 07:28:38;;;;;;;10.98;2.15;;;13.80;99.90;;;;;;5012492;28;20192;-55
2022/10/16 07:31:10;;;;;;;13.05;2.28;;;13.80;99.90;;;;;;5008393;28;20208;-58
2022/10/16 07:33:38;;;;;;;6.05;1.92;;;13.80;99.90;;;;;;4995746;28;20184;-56
2022/10/16 07:36:05;;;;;;;14.63;2.60;;;13.80;99.90;;;;;;5002586;28;20189;-57
2022/10/16 07:38:30;;;;;;;10.93;2.33;;;13.80;99.90;;;;;;5000479;28;20227;-51
2022/10/16 07:41:01;;;;;;;15.27;2.50;;;13.80;99.90;;;;;;5013680;28;20193;-54
2022/10/16 07:43:27;;;;;;;13.57;2.35;;;13.80;99.90;;;;;;5009386;28;20271;-55
2022/10/16 07:45:54;;;;;;;12.60;2.30;;;13.80;99.90;;;;;;5013307;28;20195;-58
2022/10/16 07:48:21;;;;;;;16.23;2.65;;;13.90;99.90;;;;;;4999878;28;20252;-59
2022/10/16 07:50:47;;;;;;;12.65;2.90;;;13.90;99.90;;;;;;5018932;28;20232;-59
2022/10/16 07:53:13;;;;;;;16.67;2.70;;;14.00;99.90;;;;;;5003145;28;20212;-58
2022/10/16 07:55:39;;;;;;;12.98;2.25;;;14.00;99.90;;;;;;5025313;28;20337;-57
2022/10/16 07:58:06;;;;;;;16.27;2.40;;;14.00;99.90;;;;;;5002920;28;20225;-60
2022/10/16 08:00:32;;;;;;;16.95;3.15;;;14.00;99.90;;;;;;5009170;28;20344;-57
2022/10/16 08:03:01;;;;;;;16.95;3.05;;;14.20;99.90;;;;;;5009885;28;20292;-59
2022/10/16 08:05:32;;;;;;;17.55;2.65;;;14.20;99.90;;;;;;5015288;28;20185;-50
2022/10/16 08:07:58;;;;;;;20.40;2.95;;;14.30;99.90;;;;;;5008481;28;20185;-53
2022/10/16 08:10:26;;;;;;;11.15;2.88;;;14.30;99.90;;;;;;5010696;28;20211;-50
2022/10/16 08:12:52;;;;;;;17.38;2.70;;;14.40;99.90;;;;;;5010147;28;20545;-51
2022/10/16 08:15:19;;;;;;;14.35;2.30;;;14.50;99.90;;;;;;5011844;28;20180;-50
2022/10/16 08:17:54;;;;;;;10.88;2.40;;;14.50;99.90;;;;;;5009887;28;20191;-51
2022/10/16 08:20:20;;;;;;;17.70;2.88;;;14.50;99.90;;;;;;5003465;28;20324;-57
2022/10/16 08:22:46;;;;;;;14.48;3.03;;;14.60;99.90;;;;;;5003434;28;20612;-57
2022/10/16 08:25:12;;;;;;;12.15;3.00;;;14.60;99.90;;;;;;5011735;28;20187;-59
2022/10/16 08:27:37;;;;;;;16.08;2.88;;;14.80;99.90;;;;;;5010820;28;20602;-58
2022/10/16 08:30:03;;;;;;;14.50;3.65;;;14.90;99.90;;;;;;5026986;28;20212;-71
2022/10/16 08:32:29;;;;;;;17.33;3.00;;;15.00;99.90;;;;;;5012522;28;20191;-57
2022/10/16 08:34:55;;;;;;;12.73;2.42;;;15.10;99.90;;;;;;5007319;28;20583;-66
2022/10/16 08:37:20;;;;;;;11.57;2.97;;;15.10;99.90;;;;;;5009015;28;20192;-66
2022/10/16 08:39:46;;;;;;;18.85;3.10;;;15.20;99.90;;;;;;5012931;28;20196;-66
2022/10/16 08:42:40;;;;;;;18.38;2.72;;;15.20;99.90;;;;;;5010613;28;20181;-66
2022/10/16 08:45:27;;;;;;;17.40;3.00;;;15.30;99.90;;;;;;5011469;28;20630;-66
2022/10/16 08:48:02;;;;;;;14.27;2.92;;;15.40;99.90;;;;;;5002945;28;20686;-66
2022/10/16 08:50:31;;;;;;;14.27;3.15;;;15.40;99.90;;;;;;5011358;28;20207;-65
2022/10/16 08:52:57;;;;;;;15.45;3.45;;;15.40;99.90;;;;;;5009272;28;20196;-69
2022/10/16 08:55:50;;;;;;;18.38;2.80;;;15.40;99.90;;;;;;5012660;28;20256;-63
2022/10/16 08:58:27;;;;;;;22.10;3.25;;;15.40;99.90;;;;;;5009227;28;20189;-66
2022/10/16 09:00:59;;;;;;;17.77;2.95;;;15.40;99.90;;;;;;4999183;28;20227;-60
2022/10/16 09:03:34;;;;;;;17.33;2.70;;;15.50;99.90;;;;;;4995897;28;20646;-63
2022/10/16 09:06:30;;;;;;;18.90;3.42;;;15.50;99.90;;;;;;5003576;28;20223;-65
2022/10/16 09:09:14;;;;;;;26.15;3.30;;;15.40;99.90;;;;;;5005789;28;20239;-62
2022/10/16 09:11:46;;;;;;;12.98;2.65;;;15.40;99.90;;;;;;5005432;28;20212;-63
2022/10/16 09:14:39;;;;;;;19.90;3.60;;;15.40;99.90;;;;;;5020716;28;20197;-71
2022/10/16 09:17:17;;;;;;;17.98;2.97;;;15.50;99.90;;;;;;5004592;28;20275;-66
2022/10/16 09:19:50;;;;;;;18.35;2.95;;;15.60;99.90;;;;;;5013783;28;20270;-63
2022/10/16 09:22:18;;;;;;;17.88;2.55;;;15.60;99.90;;;;;;5009279;28;20185;-61
2022/10/16 09:24:43;;;;;;;12.95;2.40;;;15.70;99.90;;;;;;5013398;28;20181;-63
2022/10/16 09:27:14;;;;;;;15.93;2.47;;;15.80;99.90;;;;;;5012372;28;20188;-70
2022/10/16 09:29:40;;;;;;;17.00;2.85;;;15.90;99.90;;;;;;5014235;28;20669;-68
2022/10/16 09:32:17;;;;;;;17.65;3.17;;;16.00;99.90;;;;;;5011221;28;20243;-62
2022/10/16 09:34:48;;;;;;;18.80;2.58;;;16.00;99.90;;;;;;5000958;28;20200;-60
2022/10/16 09:37:17;;;;;;;18.95;2.60;;;16.10;99.90;;;;;;5023879;28;20176;-60
2022/10/16 09:39:47;;;;;;;20.05;2.70;;;16.10;99.90;;;;;;5006786;28;20200;-63
2022/10/16 09:42:35;;;;;;;14.35;2.58;;;16.20;99.90;;;;;;5028903;28;22692;-62
2022/10/16 09:45:01;;;;;;;16.52;2.53;;;16.30;99.90;;;;;;5015504;28;20191;-63
2022/10/16 09:47:29;;;;;;;19.20;2.90;;;16.40;99.90;;;;;;5010063;28;20240;-64
2022/10/16 09:49:59;;;;;;;12.85;2.30;;;16.40;99.90;;;;;;4997945;28;20181;-63
2022/10/16 09:52:25;;;;;;;18.98;2.55;;;16.40;99.90;;;;;;5012881;28;20185;-63
2022/10/16 09:54:54;;;;;;;12.52;2.45;;;16.50;99.90;;;;;;5003208;28;20190;-64
2022/10/16 09:57:21;;;;;;;22.30;2.42;;;16.60;99.90;;;;;;4994483;28;20187;-65
2022/10/16 09:59:57;;;;;;;16.50;2.50;;;16.60;99.90;;;;;;5008621;28;20188;-64
2022/10/16 10:02:30;;;;;;;19.85;2.90;;;16.60;99.90;;;;;;5013360;28;20181;-63
2022/10/16 10:04:56;;;;;;;22.70;3.10;;;16.70;99.90;;;;;;5013243;28;20602;-63
2022/10/16 10:07:27;;;;;;;14.70;2.60;;;16.70;99.90;;;;;;5011115;28;20189;-63
2022/10/16 10:09:56;;;;;;;17.40;2.72;;;16.80;99.90;;;;;;5013522;28;20177;-63
2022/10/16 10:12:24;;;;;;;14.18;2.55;;;16.80;99.90;;;;;;5012521;28;20239;-63
2022/10/16 10:14:56;;;;;;;12.90;2.53;;;16.80;99.90;;;;;;5014120;28;20212;-63
2022/10/16 10:17:25;;;;;;;17.85;2.85;;;16.90;99.90;;;;;;5008842;28;20912;-63
2022/10/16 10:20:22;;;;;;;23.33;3.22;;;16.90;99.90;;;;;;5000486;28;20184;-62
2022/10/16 10:22:48;;;;;;;14.98;2.65;;;16.90;99.90;;;;;;5010892;28;20287;-62
2022/10/16 10:25:20;;;;;;;20.25;2.83;;;16.90;99.90;;;;;;5013807;28;20302;-62
2022/10/16 10:28:08;;;;;;;20.13;2.72;;;17.00;99.90;;;;;;5007679;28;21983;-63
2022/10/16 10:31:13;;;;;;;18.25;2.33;;;17.00;99.90;;;;;;4999120;28;20235;-63
2022/10/16 10:34:04;;;;;;;19.98;2.70;;;17.10;99.90;;;;;;4987668;28;20196;-63
2022/10/16 10:36:41;;;;;;;17.33;2.35;;;17.30;99.90;;;;;;4997038;28;20181;-63
2022/10/16 10:39:30;;;;;;;17.52;2.72;;;17.30;99.90;;;;;;5005758;28;20199;-61
2022/10/16 10:42:11;;;;;;;14.52;2.38;;;17.40;99.90;;;;;;5013040;28;20649;-65
2022/10/16 10:44:43;;;;;;;16.52;2.55;;;17.40;99.90;;;;;;5010225;28;20189;-62
2022/10/16 10:47:16;;;;;;;20.70;2.63;;;17.40;99.90;;;;;;5010227;28;20769;-63
2022/10/16 10:49:57;;;;;;;10.45;2.40;;;17.50;99.90;;;;;;5014033;28;20757;-62
2022/10/16 10:52:44;;;;;;;16.15;2.33;;;17.50;99.90;;;;;;5010304;28;20240;-63
2022/10/16 10:55:20;;;;;;;11.13;2.35;;;17.50;99.90;;;;;;5003582;28;20663;-63
2022/10/16 10:58:04;;;;;;;18.05;2.08;;;17.50;99.90;;;;;;5012067;28;20641;-63
2022/10/16 11:00:48;;;;;;;15.50;2.40;;;17.60;99.90;;;;;;5011294;28;20192;-63
2022/10/16 11:03:47;;;;;;;19.63;2.55;;;17.70;99.90;;;;;;5009706;28;20181;-62
2022/10/16 11:06:41;;;;;;;18.40;2.47;;;17.70;99.90;;;;;;5014115;28;20783;-63
2022/10/16 11:09:15;;;;;;;14.68;2.50;;;17.80;99.90;;;;;;5010698;28;20244;-62
2022/10/16 11:11:54;;;;;;;14.57;2.08;;;17.70;99.90;;;;;;5014089;28;20290;-62
2022/10/16 11:14:43;;;;;;;13.77;2.30;;;17.70;99.90;;;;;;5003931;28;20193;-63
2022/10/16 11:17:12;;;;;;;15.30;2.42;;;17.70;99.90;;;;;;5007454;28;20198;-64
2022/10/16 11:19:52;;;;;;;16.80;2.67;;;17.70;99.90;;;;;;4994527;28;20181;-64
2022/10/16 11:22:32;;;;;;;14.13;2.30;;;17.70;99.90;;;;;;5010459;28;20695;-62
2022/10/16 11:25:05;;;;;;;17.55;2.72;;;17.70;99.90;;;;;;4996521;28;20183;-64
2022/10/16 11:27:38;;;;;;;15.25;2.60;;;17.80;99.90;;;;;;5017938;28;20594;-62
2022/10/16 11:30:19;;;;;;;14.65;2.45;;;17.90;99.70;;;;;;5012491;28;20255;-62
2022/10/16 11:33:03;;;;;;;12.70;2.45;;;17.90;99.50;;;;;;5010171;28;20189;-63
2022/10/16 11:35:52;;;;;;;17.98;3.08;;;18.00;98.80;;;;;;4996689;28;20193;-63
2022/10/16 11:38:30;;;;;;;13.05;2.20;;;18.10;98.70;;;;;;5006402;28;20208;-62
2022/10/16 11:41:03;;;;;;;11.05;2.53;;;18.30;98.80;;;;;;5012116;28;20187;-62
2022/10/16 11:43:45;;;;;;;18.20;2.53;;;18.40;98.50;;;;;;5001935;28;20313;-63
2022/10/16 11:46:17;;;;;;;23.15;2.40;;;18.50;97.70;;;;;;5007692;28;20614;-62
2022/10/16 11:48:46;;;;;;;15.30;2.60;;;18.50;97.70;;;;;;4998361;28;20189;-62
2022/10/16 11:51:35;;;;;;;17.75;2.72;;;18.50;97.70;;;;;;4993568;28;20197;-62
2022/10/16 11:54:16;;;;;;;14.73;2.30;;;18.60;97.50;;;;;;4996418;28;20193;-66
2022/10/16 11:56:44;;;;;;;12.07;2.30;;;18.60;97.60;;;;;;5025743;28;20207;-62
2022/10/16 11:59:20;;;;;;;11.90;2.20;;;18.70;97.30;;;;;;4993619;28;20651;-63
2022/10/16 12:02:26;;;;;;;9.75;2.15;;;18.80;96.70;;;;;;5013582;28;20195;-62
2022/10/16 12:05:13;;;;;;;11.75;2.00;;;18.70;95.70;;;;;;4995719;28;20626;-63
2022/10/16 12:07:50;;;;;;;10.98;2.03;;;18.70;95.40;;;;;;5025860;28;20177;-63
2022/10/16 12:10:24;;;;;;;13.60;2.20;;;18.60;96.00;;;;;;5013531;28;20203;-63
2022/10/16 12:12:53;;;;;;;9.80;1.80;;;18.60;95.90;;;;;;5004928;28;20185;-63
2022/10/16 12:15:26;;;;;;;10.45;2.10;;;18.60;95.50;;;;;;4997379;28;20184;-61
2022/10/16 12:17:53;;;;;;;15.40;2.47;;;18.70;95.60;;;;;;4998524;28;20219;-60
2022/10/16 12:20:31;;;;;;;14.95;2.53;;;18.80;95.70;;;;;;5000325;28;20235;-61
2022/10/16 12:23:01;;;;;;;14.05;2.35;;;18.90;95.50;;;;;;4996367;28;20172;-63
2022/10/16 12:25:35;;;;;;;13.82;2.38;;;19.00;95.10;;;;;;5025391;28;20603;-61
2022/10/16 12:28:06;;;;;;;17.00;2.33;;;19.00;94.60;;;;;;5010308;28;20226;-60
2022/10/16 12:30:36;;;;;;;17.15;2.50;;;19.00;94.60;;;;;;5027177;28;20207;-59
2022/10/16 12:33:05;;;;;;;10.20;2.10;;;19.10;94.50;;;;;;5011238;28;20185;-61
2022/10/16 12:35:43;;;;;;;14.20;1.88;;;19.30;94.20;;;;;;5003940;28;20327;-59
2022/10/16 12:38:18;;;;;;;9.48;1.70;;;19.50;94.30;;;;;;4995705;28;20188;-60
2022/10/16 12:40:47;;;;;;;10.07;1.83;;;19.80;93.20;;;;;;4996029;28;20640;-61
2022/10/16 12:43:24;;;;;;;16.35;2.20;;;19.90;92.70;;;;;;4996696;28;20181;-61
2022/10/16 12:46:19;;;;;;;14.05;2.20;;;20.10;91.50;;;;;;4993303;28;20280;-62
2022/10/16 12:48:46;;;;;;;5.68;1.52;;;20.30;92.10;;;;;;5000588;28;20327;-62
2022/10/16 12:51:29;;;;;;;13.40;1.95;;;20.60;91.40;;;;;;5012687;28;20211;-61
2022/10/16 12:54:14;;;;;;;13.82;1.92;;;20.80;90.40;;;;;;5005932;28;20551;-64
2022/10/16 12:56:54;;;;;;;11.20;1.80;;;20.90;87.20;;;;;;5010251;28;20192;-70
2022/10/16 12:59:39;;;;;;;11.68;2.20;;;21.10;84.80;;;;;;5013808;28;20172;-62
2022/10/16 13:02:36;;;;;;;11.20;2.70;;;21.20;84.90;;;;;;4995875;28;20192;-62